sensor_id;sensor_type;location;lat;lon;timestamp;P1;durP1;ratioP1;P2;durP2;ratioP2
35667;SDS011;22158;59.280;17.806;2023-08-06T00:00:05;7.40;;;3.95;;
35667;SDS011;22158;59.280;17.806;2023-08-06T00:02:31;7.25;;;3.67;;
35667;SDS011;22158;59.280;17.806;2023-08-06T00:04:56;8.60;;;3.33;;
35667;SDS011;22158;59.280;17.806;2023-08-06T00:07:22;9.90;;;3.75;;
35667;SDS011;22158;59.280;17.806;2023-08-06T00:09:47;7.65;;;3.55;;
35667;SDS011;22158;59.280;17.806;2023-08-06T00:12:13;6.22;;;3.10;;
35667;SDS011;22158;59.280;17.806;2023-08-06T00:14:38;8.50;;;3.63;;
35667;SDS011;22158;59.280;17.806;2023-08-06T00:17:04;5.38;;;2.97;;
35667;SDS011;22158;59.280;17.806;2023-08-06T00:19:30;8.93;;;3.38;;
35667;SDS011;22158;59.280;17.806;2023-08-06T00:21:56;7.00;;;4.05;;
35667;SDS011;22158;59.280;17.806;2023-08-06T00:24:22;9.90;;;3.22;;
35667;SDS011;22158;59.280;17.806;2023-08-06T00:26:48;4.90;;;3.28;;
35667;SDS011;22158;59.280;17.806;2023-08-06T00:29:13;8.38;;;3.30;;
35667;SDS011;22158;59.280;17.806;2023-08-06T00:31:39;10.18;;;3.50;;
35667;SDS011;22158;59.280;17.806;2023-08-06T00:34:05;9.57;;;4.00;;
35667;SDS011;22158;59.280;17.806;2023-08-06T00:36:30;6.53;;;3.38;;
35667;SDS011;22158;59.280;17.806;2023-08-06T00:38:56;5.38;;;3.50;;
35667;SDS011;22158;59.280;17.806;2023-08-06T00:41:21;7.45;;;3.70;;
35667;SDS011;22158;59.280;17.806;2023-08-06T00:43:47;9.82;;;3.60;;
35667;SDS011;22158;59.280;17.806;2023-08-06T00:46:12;6.10;;;4.40;;
35667;SDS011;22158;59.280;17.806;2023-08-06T00:48:39;6.78;;;3.05;;
35667;SDS011;22158;59.280;17.806;2023-08-06T00:51:05;7.28;;;3.42;;
35667;SDS011;22158;59.280;17.806;2023-08-06T00:53:31;8.05;;;3.72;;
35667;SDS011;22158;59.280;17.806;2023-08-06T00:55:57;9.98;;;3.80;;
35667;SDS011;22158;59.280;17.806;2023-08-06T00:58:23;10.43;;;3.60;;
35667;SDS011;22158;59.280;17.806;2023-08-06T01:00:49;5.55;;;3.35;;
35667;SDS011;22158;59.280;17.806;2023-08-06T01:03:15;10.32;;;4.93;;
35667;SDS011;22158;59.280;17.806;2023-08-06T01:05:41;8.13;;;3.95;;
35667;SDS011;22158;59.280;17.806;2023-08-06T01:13:43;6.47;;;3.33;;
35667;SDS011;22158;59.280;17.806;2023-08-06T01:16:14;6.15;;;3.85;;
35667;SDS011;22158;59.280;17.806;2023-08-06T01:18:40;7.22;;;3.67;;
35667;SDS011;22158;59.280;17.806;2023-08-06T01:21:08;6.82;;;3.47;;
35667;SDS011;22158;59.280;17.806;2023-08-06T01:23:34;8.90;;;3.60;;
35667;SDS011;22158;59.280;17.806;2023-08-06T01:26:05;9.00;;;4.20;;
35667;SDS011;22158;59.280;17.806;2023-08-06T01:31:47;6.43;;;3.95;;
35667;SDS011;22158;59.280;17.806;2023-08-06T01:34:20;7.88;;;3.80;;
35667;SDS011;22158;59.280;17.806;2023-08-06T01:36:48;6.57;;;3.88;;
35667;SDS011;22158;59.280;17.806;2023-08-06T01:39:14;12.27;;;3.75;;
35667;SDS011;22158;59.280;17.806;2023-08-06T01:41:40;7.22;;;3.63;;
35667;SDS011;22158;59.280;17.806;2023-08-06T01:44:06;7.10;;;3.28;;
35667;SDS011;22158;59.280;17.806;2023-08-06T01:46:31;6.38;;;3.70;;
35667;SDS011;22158;59.280;17.806;2023-08-06T01:48:57;9.50;;;3.88;;
35667;SDS011;22158;59.280;17.806;2023-08-06T01:51:22;5.82;;;4.25;;
35667;SDS011;22158;59.280;17.806;2023-08-06T01:53:48;7.55;;;4.13;;
35667;SDS011;22158;59.280;17.806;2023-08-06T01:56:13;9.40;;;4.72;;
35667;SDS011;22158;59.280;17.806;2023-08-06T01:58:39;6.63;;;4.40;;
35667;SDS011;22158;59.280;17.806;2023-08-06T02:01:05;8.68;;;3.90;;
35667;SDS011;22158;59.280;17.806;2023-08-06T02:03:30;6.32;;;4.22;;
35667;SDS011;22158;59.280;17.806;2023-08-06T02:05:56;7.45;;;3.95;;
35667;SDS011;22158;59.280;17.806;2023-08-06T02:08:21;5.72;;;3.28;;
35667;SDS011;22158;59.280;17.806;2023-08-06T02:10:47;8.70;;;3.97;;
35667;SDS011;22158;59.280;17.806;2023-08-06T02:13:13;12.32;;;3.63;;
35667;SDS011;22158;59.280;17.806;2023-08-06T02:15:43;7.80;;;3.72;;
35667;SDS011;22158;59.280;17.806;2023-08-06T02:18:09;7.70;;;4.03;;
35667;SDS011;22158;59.280;17.806;2023-08-06T02:20:34;6.38;;;4.00;;
35667;SDS011;22158;59.280;17.806;2023-08-06T02:23:00;7.85;;;4.20;;
35667;SDS011;22158;59.280;17.806;2023-08-06T02:25:26;6.93;;;4.45;;
35667;SDS011;22158;59.280;17.806;2023-08-06T02:27:51;4.80;;;4.03;;
35667;SDS011;22158;59.280;17.806;2023-08-06T02:30:17;6.30;;;3.90;;
35667;SDS011;22158;59.280;17.806;2023-08-06T02:32:42;6.68;;;4.00;;
35667;SDS011;22158;59.280;17.806;2023-08-06T02:35:08;9.00;;;4.43;;
35667;SDS011;22158;59.280;17.806;2023-08-06T02:37:34;9.02;;;4.35;;
35667;SDS011;22158;59.280;17.806;2023-08-06T02:39:59;8.00;;;4.15;;
35667;SDS011;22158;59.280;17.806;2023-08-06T02:42:25;4.82;;;3.70;;
35667;SDS011;22158;59.280;17.806;2023-08-06T02:44:52;13.77;;;4.00;;
35667;SDS011;22158;59.280;17.806;2023-08-06T02:47:19;7.55;;;4.13;;
35667;SDS011;22158;59.280;17.806;2023-08-06T02:49:45;7.72;;;4.20;;
35667;SDS011;22158;59.280;17.806;2023-08-06T02:52:11;6.90;;;3.40;;
35667;SDS011;22158;59.280;17.806;2023-08-06T02:54:37;7.82;;;4.47;;
35667;SDS011;22158;59.280;17.806;2023-08-06T02:57:03;5.40;;;3.60;;
35667;SDS011;22158;59.280;17.806;2023-08-06T02:59:30;5.00;;;3.85;;
35667;SDS011;22158;59.280;17.806;2023-08-06T03:01:55;5.85;;;4.10;;
35667;SDS011;22158;59.280;17.806;2023-08-06T03:04:21;7.10;;;3.85;;
35667;SDS011;22158;59.280;17.806;2023-08-06T03:06:47;8.02;;;4.20;;
35667;SDS011;22158;59.280;17.806;2023-08-06T03:09:15;8.85;;;4.15;;
35667;SDS011;22158;59.280;17.806;2023-08-06T03:11:40;8.20;;;4.25;;
35667;SDS011;22158;59.280;17.806;2023-08-06T03:14:06;6.78;;;4.10;;
35667;SDS011;22158;59.280;17.806;2023-08-06T03:16:31;6.00;;;3.90;;
35667;SDS011;22158;59.280;17.806;2023-08-06T03:18:57;5.60;;;3.83;;
35667;SDS011;22158;59.280;17.806;2023-08-06T03:21:22;10.27;;;4.05;;
35667;SDS011;22158;59.280;17.806;2023-08-06T03:23:48;10.00;;;4.35;;
35667;SDS011;22158;59.280;17.806;2023-08-06T03:26:14;7.10;;;3.72;;
35667;SDS011;22158;59.280;17.806;2023-08-06T03:28:39;6.60;;;4.13;;
35667;SDS011;22158;59.280;17.806;2023-08-06T03:31:05;7.93;;;4.05;;
35667;SDS011;22158;59.280;17.806;2023-08-06T03:33:30;8.88;;;4.57;;
35667;SDS011;22158;59.280;17.806;2023-08-06T03:35:56;7.80;;;4.15;;
35667;SDS011;22158;59.280;17.806;2023-08-06T03:38:22;4.97;;;3.45;;
35667;SDS011;22158;59.280;17.806;2023-08-06T03:40:48;6.80;;;3.78;;
35667;SDS011;22158;59.280;17.806;2023-08-06T03:43:13;5.25;;;4.18;;
35667;SDS011;22158;59.280;17.806;2023-08-06T03:45:40;7.43;;;4.40;;
35667;SDS011;22158;59.280;17.806;2023-08-06T03:48:06;7.72;;;4.07;;
35667;SDS011;22158;59.280;17.806;2023-08-06T03:50:31;8.63;;;4.55;;
35667;SDS011;22158;59.280;17.806;2023-08-06T03:52:57;7.38;;;3.83;;
35667;SDS011;22158;59.280;17.806;2023-08-06T03:55:22;8.02;;;3.85;;
35667;SDS011;22158;59.280;17.806;2023-08-06T03:57:48;8.73;;;5.55;;
35667;SDS011;22158;59.280;17.806;2023-08-06T04:00:14;6.47;;;4.60;;
35667;SDS011;22158;59.280;17.806;2023-08-06T04:02:39;9.02;;;4.13;;
35667;SDS011;22158;59.280;17.806;2023-08-06T04:05:05;9.43;;;4.43;;
35667;SDS011;22158;59.280;17.806;2023-08-06T04:07:31;10.07;;;4.20;;
35667;SDS011;22158;59.280;17.806;2023-08-06T04:09:57;9.15;;;4.80;;
35667;SDS011;22158;59.280;17.806;2023-08-06T04:12:24;7.43;;;4.18;;
35667;SDS011;22158;59.280;17.806;2023-08-06T04:14:50;10.43;;;4.70;;
35667;SDS011;22158;59.280;17.806;2023-08-06T04:17:17;7.90;;;4.07;;
35667;SDS011;22158;59.280;17.806;2023-08-06T04:19:45;6.88;;;4.00;;
35667;SDS011;22158;59.280;17.806;2023-08-06T04:22:12;7.05;;;4.18;;
35667;SDS011;22158;59.280;17.806;2023-08-06T04:24:38;8.98;;;5.18;;
35667;SDS011;22158;59.280;17.806;2023-08-06T04:27:03;8.55;;;4.55;;
35667;SDS011;22158;59.280;17.806;2023-08-06T04:29:29;8.60;;;4.90;;
35667;SDS011;22158;59.280;17.806;2023-08-06T04:31:55;12.63;;;4.65;;
35667;SDS011;22158;59.280;17.806;2023-08-06T04:34:21;10.38;;;5.00;;
35667;SDS011;22158;59.280;17.806;2023-08-06T04:36:46;6.82;;;4.95;;
35667;SDS011;22158;59.280;17.806;2023-08-06T04:39:12;9.52;;;5.40;;
35667;SDS011;22158;59.280;17.806;2023-08-06T04:41:37;10.77;;;4.88;;
35667;SDS011;22158;59.280;17.806;2023-08-06T04:44:03;11.30;;;4.78;;
35667;SDS011;22158;59.280;17.806;2023-08-06T04:46:29;8.55;;;5.20;;
35667;SDS011;22158;59.280;17.806;2023-08-06T04:48:54;9.48;;;5.25;;
35667;SDS011;22158;59.280;17.806;2023-08-06T04:51:20;11.88;;;5.85;;
35667;SDS011;22158;59.280;17.806;2023-08-06T04:53:46;9.57;;;5.57;;
35667;SDS011;22158;59.280;17.806;2023-08-06T04:56:11;7.13;;;5.80;;
35667;SDS011;22158;59.280;17.806;2023-08-06T04:58:37;11.52;;;5.75;;
35667;SDS011;22158;59.280;17.806;2023-08-06T05:01:02;7.10;;;4.85;;
35667;SDS011;22158;59.280;17.806;2023-08-06T05:03:28;8.52;;;5.40;;
35667;SDS011;22158;59.280;17.806;2023-08-06T05:05:53;9.77;;;5.43;;
35667;SDS011;22158;59.280;17.806;2023-08-06T05:08:20;9.18;;;5.18;;
35667;SDS011;22158;59.280;17.806;2023-08-06T05:10:45;14.77;;;5.38;;
35667;SDS011;22158;59.280;17.806;2023-08-06T05:13:11;7.88;;;5.20;;
35667;SDS011;22158;59.280;17.806;2023-08-06T05:15:37;13.77;;;5.65;;
35667;SDS011;22158;59.280;17.806;2023-08-06T05:18:04;10.95;;;5.38;;
35667;SDS011;22158;59.280;17.806;2023-08-06T05:20:30;11.90;;;5.47;;
35667;SDS011;22158;59.280;17.806;2023-08-06T05:22:55;9.82;;;4.65;;
35667;SDS011;22158;59.280;17.806;2023-08-06T05:25:21;10.93;;;5.82;;
35667;SDS011;22158;59.280;17.806;2023-08-06T05:27:47;8.00;;;4.18;;
35667;SDS011;22158;59.280;17.806;2023-08-06T05:30:12;10.02;;;4.75;;
35667;SDS011;22158;59.280;17.806;2023-08-06T05:32:38;9.27;;;4.63;;
35667;SDS011;22158;59.280;17.806;2023-08-06T05:35:03;10.50;;;5.10;;
35667;SDS011;22158;59.280;17.806;2023-08-06T05:37:29;7.55;;;4.70;;
35667;SDS011;22158;59.280;17.806;2023-08-06T05:39:55;11.60;;;4.38;;
35667;SDS011;22158;59.280;17.806;2023-08-06T05:42:20;13.15;;;4.68;;
35667;SDS011;22158;59.280;17.806;2023-08-06T05:44:46;8.35;;;4.85;;
35667;SDS011;22158;59.280;17.806;2023-08-06T05:47:12;9.15;;;4.72;;
35667;SDS011;22158;59.280;17.806;2023-08-06T05:49:37;6.75;;;3.90;;
35667;SDS011;22158;59.280;17.806;2023-08-06T05:52:03;15.88;;;4.47;;
35667;SDS011;22158;59.280;17.806;2023-08-06T05:54:31;9.57;;;4.50;;
35667;SDS011;22158;59.280;17.806;2023-08-06T05:56:56;5.00;;;3.47;;
35667;SDS011;22158;59.280;17.806;2023-08-06T05:59:22;6.55;;;3.75;;
35667;SDS011;22158;59.280;17.806;2023-08-06T06:01:48;10.02;;;4.15;;
35667;SDS011;22158;59.280;17.806;2023-08-06T06:04:13;7.38;;;3.90;;
35667;SDS011;22158;59.280;17.806;2023-08-06T06:06:39;8.20;;;4.15;;
35667;SDS011;22158;59.280;17.806;2023-08-06T06:09:06;5.95;;;3.08;;
35667;SDS011;22158;59.280;17.806;2023-08-06T06:11:32;12.48;;;4.20;;
35667;SDS011;22158;59.280;17.806;2023-08-06T06:13:57;4.38;;;3.15;;
35667;SDS011;22158;59.280;17.806;2023-08-06T06:16:23;6.90;;;3.75;;
35667;SDS011;22158;59.280;17.806;2023-08-06T06:18:49;8.00;;;3.55;;
35667;SDS011;22158;59.280;17.806;2023-08-06T06:21:14;8.13;;;3.97;;
35667;SDS011;22158;59.280;17.806;2023-08-06T06:23:40;6.68;;;3.78;;
35667;SDS011;22158;59.280;17.806;2023-08-06T06:26:06;8.80;;;3.60;;
35667;SDS011;22158;59.280;17.806;2023-08-06T06:28:31;6.93;;;3.72;;
35667;SDS011;22158;59.280;17.806;2023-08-06T06:31:03;7.68;;;3.53;;
35667;SDS011;22158;59.280;17.806;2023-08-06T06:33:29;9.13;;;3.70;;
35667;SDS011;22158;59.280;17.806;2023-08-06T06:35:54;6.57;;;4.03;;
35667;SDS011;22158;59.280;17.806;2023-08-06T06:38:20;8.52;;;3.38;;
35667;SDS011;22158;59.280;17.806;2023-08-06T06:40:55;9.57;;;4.65;;
35667;SDS011;22158;59.280;17.806;2023-08-06T06:43:21;7.97;;;3.70;;
35667;SDS011;22158;59.280;17.806;2023-08-06T06:45:52;6.38;;;3.17;;
35667;SDS011;22158;59.280;17.806;2023-08-06T06:48:18;7.50;;;4.00;;
35667;SDS011;22158;59.280;17.806;2023-08-06T06:50:47;10.10;;;4.00;;
35667;SDS011;22158;59.280;17.806;2023-08-06T06:53:13;4.60;;;3.45;;
35667;SDS011;22158;59.280;17.806;2023-08-06T06:55:39;7.70;;;3.45;;
35667;SDS011;22158;59.280;17.806;2023-08-06T06:58:04;5.72;;;3.80;;
35667;SDS011;22158;59.280;17.806;2023-08-06T07:00:30;8.95;;;3.78;;
35667;SDS011;22158;59.280;17.806;2023-08-06T07:02:55;6.40;;;3.63;;
35667;SDS011;22158;59.280;17.806;2023-08-06T07:05:21;12.63;;;3.55;;
35667;SDS011;22158;59.280;17.806;2023-08-06T07:07:46;5.93;;;3.03;;
35667;SDS011;22158;59.280;17.806;2023-08-06T07:10:12;5.72;;;3.38;;
35667;SDS011;22158;59.280;17.806;2023-08-06T07:12:38;7.05;;;3.55;;
35667;SDS011;22158;59.280;17.806;2023-08-06T07:15:04;10.20;;;3.33;;
35667;SDS011;22158;59.280;17.806;2023-08-06T07:17:31;7.55;;;3.38;;
35667;SDS011;22158;59.280;17.806;2023-08-06T07:19:56;10.32;;;3.97;;
35667;SDS011;22158;59.280;17.806;2023-08-06T07:22:22;8.65;;;3.05;;
35667;SDS011;22158;59.280;17.806;2023-08-06T07:24:48;5.70;;;3.30;;
35667;SDS011;22158;59.280;17.806;2023-08-06T07:27:13;10.95;;;5.50;;
35667;SDS011;22158;59.280;17.806;2023-08-06T07:29:39;17.65;;;7.97;;
35667;SDS011;22158;59.280;17.806;2023-08-06T07:32:06;6.47;;;4.35;;
35667;SDS011;22158;59.280;17.806;2023-08-06T07:34:32;6.05;;;4.13;;
35667;SDS011;22158;59.280;17.806;2023-08-06T07:36:57;10.43;;;4.78;;
35667;SDS011;22158;59.280;17.806;2023-08-06T07:39:23;5.85;;;3.95;;
35667;SDS011;22158;59.280;17.806;2023-08-06T07:41:49;8.23;;;4.43;;
35667;SDS011;22158;59.280;17.806;2023-08-06T07:44:14;5.90;;;3.50;;
35667;SDS011;22158;59.280;17.806;2023-08-06T07:46:40;7.05;;;4.00;;
35667;SDS011;22158;59.280;17.806;2023-08-06T07:49:05;8.20;;;3.40;;
35667;SDS011;22158;59.280;17.806;2023-08-06T07:51:31;8.30;;;3.95;;
35667;SDS011;22158;59.280;17.806;2023-08-06T07:53:56;13.23;;;5.68;;
35667;SDS011;22158;59.280;17.806;2023-08-06T07:56:22;14.32;;;5.72;;
35667;SDS011;22158;59.280;17.806;2023-08-06T07:58:48;4.38;;;2.88;;
35667;SDS011;22158;59.280;17.806;2023-08-06T08:01:13;5.93;;;3.25;;
35667;SDS011;22158;59.280;17.806;2023-08-06T08:03:39;5.72;;;2.78;;
35667;SDS011;22158;59.280;17.806;2023-08-06T08:06:04;5.43;;;2.85;;
35667;SDS011;22158;59.280;17.806;2023-08-06T08:08:30;9.13;;;2.90;;
35667;SDS011;22158;59.280;17.806;2023-08-06T08:10:55;3.88;;;3.08;;
35667;SDS011;22158;59.280;17.806;2023-08-06T08:13:21;5.75;;;3.00;;
35667;SDS011;22158;59.280;17.806;2023-08-06T08:15:46;5.63;;;2.97;;
35667;SDS011;22158;59.280;17.806;2023-08-06T08:18:12;9.23;;;2.78;;
35667;SDS011;22158;59.280;17.806;2023-08-06T08:20:38;6.10;;;2.95;;
35667;SDS011;22158;59.280;17.806;2023-08-06T08:23:03;5.68;;;2.70;;
35667;SDS011;22158;59.280;17.806;2023-08-06T08:25:29;3.08;;;2.50;;
35667;SDS011;22158;59.280;17.806;2023-08-06T08:27:56;5.40;;;3.00;;
35667;SDS011;22158;59.280;17.806;2023-08-06T08:30:22;5.45;;;2.80;;
35667;SDS011;22158;59.280;17.806;2023-08-06T08:32:49;9.80;;;2.83;;
35667;SDS011;22158;59.280;17.806;2023-08-06T08:35:15;4.55;;;2.55;;
35667;SDS011;22158;59.280;17.806;2023-08-06T08:37:41;6.75;;;3.00;;
35667;SDS011;22158;59.280;17.806;2023-08-06T08:40:08;5.07;;;2.70;;
35667;SDS011;22158;59.280;17.806;2023-08-06T08:42:34;12.32;;;4.00;;
35667;SDS011;22158;59.280;17.806;2023-08-06T08:45:01;6.45;;;2.60;;
35667;SDS011;22158;59.280;17.806;2023-08-06T08:47:29;5.38;;;3.10;;
35667;SDS011;22158;59.280;17.806;2023-08-06T08:49:55;6.63;;;3.20;;
35667;SDS011;22158;59.280;17.806;2023-08-06T08:52:22;7.32;;;2.80;;
35667;SDS011;22158;59.280;17.806;2023-08-06T08:54:49;9.00;;;2.85;;
35667;SDS011;22158;59.280;17.806;2023-08-06T08:57:17;7.75;;;2.58;;
35667;SDS011;22158;59.280;17.806;2023-08-06T08:59:42;14.00;;;5.20;;
35667;SDS011;22158;59.280;17.806;2023-08-06T09:02:08;7.35;;;3.00;;
35667;SDS011;22158;59.280;17.806;2023-08-06T09:04:36;5.05;;;2.58;;
35667;SDS011;22158;59.280;17.806;2023-08-06T09:07:02;9.05;;;3.03;;
35667;SDS011;22158;59.280;17.806;2023-08-06T09:09:31;8.00;;;4.25;;
35667;SDS011;22158;59.280;17.806;2023-08-06T09:12:02;12.75;;;3.38;;
35667;SDS011;22158;59.280;17.806;2023-08-06T09:14:35;6.20;;;3.47;;
35667;SDS011;22158;59.280;17.806;2023-08-06T09:17:01;6.78;;;2.70;;
35667;SDS011;22158;59.280;17.806;2023-08-06T09:19:27;7.63;;;3.20;;
35667;SDS011;22158;59.280;17.806;2023-08-06T09:21:53;6.22;;;2.47;;
35667;SDS011;22158;59.280;17.806;2023-08-06T09:24:20;6.32;;;2.53;;
35667;SDS011;22158;59.280;17.806;2023-08-06T09:26:47;4.65;;;2.47;;
35667;SDS011;22158;59.280;17.806;2023-08-06T09:29:12;7.75;;;2.85;;
35667;SDS011;22158;59.280;17.806;2023-08-06T09:31:46;6.65;;;2.97;;
35667;SDS011;22158;59.280;17.806;2023-08-06T09:34:18;10.98;;;2.92;;
35667;SDS011;22158;59.280;17.806;2023-08-06T09:36:51;7.10;;;3.08;;
35667;SDS011;22158;59.280;17.806;2023-08-06T09:39:19;8.52;;;2.88;;
35667;SDS011;22158;59.280;17.806;2023-08-06T09:41:45;11.20;;;3.72;;
35667;SDS011;22158;59.280;17.806;2023-08-06T09:44:18;6.65;;;3.22;;
35667;SDS011;22158;59.280;17.806;2023-08-06T09:46:49;5.55;;;2.85;;
35667;SDS011;22158;59.280;17.806;2023-08-06T09:49:18;6.40;;;3.20;;
35667;SDS011;22158;59.280;17.806;2023-08-06T09:51:45;6.40;;;2.80;;
35667;SDS011;22158;59.280;17.806;2023-08-06T09:54:13;7.32;;;3.70;;
35667;SDS011;22158;59.280;17.806;2023-08-06T09:56:40;8.13;;;3.13;;
35667;SDS011;22158;59.280;17.806;2023-08-06T09:59:07;7.20;;;3.63;;
35667;SDS011;22158;59.280;17.806;2023-08-06T10:01:33;6.75;;;2.75;;
35667;SDS011;22158;59.280;17.806;2023-08-06T10:04:04;9.88;;;3.42;;
35667;SDS011;22158;59.280;17.806;2023-08-06T10:06:33;7.10;;;3.33;;
35667;SDS011;22158;59.280;17.806;2023-08-06T10:09:03;7.93;;;2.92;;
35667;SDS011;22158;59.280;17.806;2023-08-06T10:11:30;8.70;;;2.72;;
35667;SDS011;22158;59.280;17.806;2023-08-06T10:16:36;8.30;;;3.35;;
35667;SDS011;22158;59.280;17.806;2023-08-06T10:19:03;6.72;;;3.17;;
35667;SDS011;22158;59.280;17.806;2023-08-06T10:21:30;7.70;;;3.05;;
35667;SDS011;22158;59.280;17.806;2023-08-06T10:23:57;5.80;;;2.83;;
35667;SDS011;22158;59.280;17.806;2023-08-06T10:26:26;10.82;;;4.45;;
35667;SDS011;22158;59.280;17.806;2023-08-06T10:28:53;6.10;;;3.35;;
35667;SDS011;22158;59.280;17.806;2023-08-06T10:31:19;9.35;;;3.42;;
35667;SDS011;22158;59.280;17.806;2023-08-06T10:33:45;6.35;;;3.45;;
35667;SDS011;22158;59.280;17.806;2023-08-06T10:36:12;7.05;;;2.78;;
35667;SDS011;22158;59.280;17.806;2023-08-06T10:38:45;5.82;;;3.03;;
35667;SDS011;22158;59.280;17.806;2023-08-06T10:41:23;10.02;;;3.05;;
35667;SDS011;22158;59.280;17.806;2023-08-06T10:44:06;8.98;;;4.13;;
35667;SDS011;22158;59.280;17.806;2023-08-06T10:46:33;6.65;;;2.72;;
35667;SDS011;22158;59.280;17.806;2023-08-06T10:48:58;7.90;;;3.47;;
35667;SDS011;22158;59.280;17.806;2023-08-06T10:51:24;7.97;;;2.95;;
35667;SDS011;22158;59.280;17.806;2023-08-06T10:53:50;5.93;;;3.53;;
35667;SDS011;22158;59.280;17.806;2023-08-06T10:58:43;7.15;;;3.50;;
35667;SDS011;22158;59.280;17.806;2023-08-06T11:01:10;10.43;;;3.78;;
35667;SDS011;22158;59.280;17.806;2023-08-06T11:03:36;6.55;;;3.22;;
35667;SDS011;22158;59.280;17.806;2023-08-06T11:06:03;4.93;;;3.17;;
35667;SDS011;22158;59.280;17.806;2023-08-06T11:08:33;7.05;;;3.35;;
35667;SDS011;22158;59.280;17.806;2023-08-06T11:11:12;7.97;;;3.60;;
35667;SDS011;22158;59.280;17.806;2023-08-06T11:13:39;7.35;;;3.65;;
35667;SDS011;22158;59.280;17.806;2023-08-06T11:16:12;7.78;;;3.33;;
35667;SDS011;22158;59.280;17.806;2023-08-06T11:18:51;6.50;;;3.70;;
35667;SDS011;22158;59.280;17.806;2023-08-06T11:21:20;7.07;;;3.15;;
35667;SDS011;22158;59.280;17.806;2023-08-06T11:23:46;7.57;;;3.88;;
35667;SDS011;22158;59.280;17.806;2023-08-06T11:26:12;9.68;;;4.03;;
35667;SDS011;22158;59.280;17.806;2023-08-06T11:28:43;9.52;;;4.05;;
35667;SDS011;22158;59.280;17.806;2023-08-06T11:31:17;7.30;;;3.83;;
35667;SDS011;22158;59.280;17.806;2023-08-06T11:33:44;7.28;;;4.15;;
35667;SDS011;22158;59.280;17.806;2023-08-06T11:36:09;7.20;;;5.05;;
35667;SDS011;22158;59.280;17.806;2023-08-06T11:38:35;7.45;;;4.53;;
35667;SDS011;22158;59.280;17.806;2023-08-06T11:41:01;11.68;;;4.22;;
35667;SDS011;22158;59.280;17.806;2023-08-06T11:43:29;7.38;;;4.13;;
35667;SDS011;22158;59.280;17.806;2023-08-06T11:45:55;8.50;;;4.10;;
35667;SDS011;22158;59.280;17.806;2023-08-06T11:48:21;15.38;;;4.60;;
35667;SDS011;22158;59.280;17.806;2023-08-06T11:50:47;8.73;;;4.00;;
35667;SDS011;22158;59.280;17.806;2023-08-06T11:53:13;6.32;;;4.03;;
35667;SDS011;22158;59.280;17.806;2023-08-06T11:55:39;15.20;;;5.22;;
35667;SDS011;22158;59.280;17.806;2023-08-06T11:58:05;8.77;;;5.00;;
35667;SDS011;22158;59.280;17.806;2023-08-06T12:00:31;12.48;;;5.10;;
35667;SDS011;22158;59.280;17.806;2023-08-06T12:02:57;9.30;;;4.72;;
35667;SDS011;22158;59.280;17.806;2023-08-06T12:05:24;11.07;;;5.38;;
35667;SDS011;22158;59.280;17.806;2023-08-06T12:07:59;18.08;;;5.13;;
35667;SDS011;22158;59.280;17.806;2023-08-06T12:10:26;11.60;;;5.32;;
35667;SDS011;22158;59.280;17.806;2023-08-06T12:12:53;7.68;;;4.22;;
35667;SDS011;22158;59.280;17.806;2023-08-06T12:15:19;12.38;;;5.35;;
35667;SDS011;22158;59.280;17.806;2023-08-06T12:17:44;11.20;;;4.68;;
35667;SDS011;22158;59.280;17.806;2023-08-06T12:20:10;13.65;;;5.25;;
35667;SDS011;22158;59.280;17.806;2023-08-06T12:22:36;8.90;;;5.97;;
35667;SDS011;22158;59.280;17.806;2023-08-06T12:25:05;9.20;;;5.07;;
35667;SDS011;22158;59.280;17.806;2023-08-06T12:27:33;10.77;;;5.10;;
35667;SDS011;22158;59.280;17.806;2023-08-06T12:29:59;8.93;;;5.50;;
35667;SDS011;22158;59.280;17.806;2023-08-06T12:32:25;9.95;;;5.78;;
35667;SDS011;22158;59.280;17.806;2023-08-06T12:34:51;9.88;;;5.47;;
35667;SDS011;22158;59.280;17.806;2023-08-06T12:37:16;11.23;;;6.05;;
35667;SDS011;22158;59.280;17.806;2023-08-06T12:39:42;9.90;;;6.80;;
35667;SDS011;22158;59.280;17.806;2023-08-06T12:42:07;7.63;;;5.53;;
35667;SDS011;22158;59.280;17.806;2023-08-06T12:44:33;9.77;;;6.03;;
35667;SDS011;22158;59.280;17.806;2023-08-06T12:46:59;13.82;;;6.47;;
35667;SDS011;22158;59.280;17.806;2023-08-06T12:49:25;11.88;;;5.50;;
35667;SDS011;22158;59.280;17.806;2023-08-06T12:51:51;10.73;;;5.70;;
35667;SDS011;22158;59.280;17.806;2023-08-06T12:54:18;14.20;;;5.80;;
35667;SDS011;22158;59.280;17.806;2023-08-06T12:56:44;12.73;;;5.88;;
35667;SDS011;22158;59.280;17.806;2023-08-06T12:59:10;10.02;;;5.65;;
35667;SDS011;22158;59.280;17.806;2023-08-06T13:01:37;13.45;;;5.70;;
35667;SDS011;22158;59.280;17.806;2023-08-06T13:04:03;11.27;;;5.97;;
35667;SDS011;22158;59.280;17.806;2023-08-06T13:06:28;10.35;;;5.95;;
35667;SDS011;22158;59.280;17.806;2023-08-06T13:08:55;13.48;;;5.43;;
35667;SDS011;22158;59.280;17.806;2023-08-06T13:11:21;9.75;;;5.97;;
35667;SDS011;22158;59.280;17.806;2023-08-06T13:13:47;14.93;;;6.90;;
35667;SDS011;22158;59.280;17.806;2023-08-06T13:16:13;14.98;;;6.38;;
35667;SDS011;22158;59.280;17.806;2023-08-06T13:18:38;10.95;;;6.25;;
35667;SDS011;22158;59.280;17.806;2023-08-06T13:21:04;12.00;;;6.78;;
35667;SDS011;22158;59.280;17.806;2023-08-06T13:23:29;12.00;;;7.13;;
35667;SDS011;22158;59.280;17.806;2023-08-06T13:25:55;13.23;;;7.35;;
35667;SDS011;22158;59.280;17.806;2023-08-06T13:28:20;12.00;;;7.18;;
35667;SDS011;22158;59.280;17.806;2023-08-06T13:30:46;12.60;;;7.28;;
35667;SDS011;22158;59.280;17.806;2023-08-06T13:33:12;12.88;;;6.82;;
35667;SDS011;22158;59.280;17.806;2023-08-06T13:35:38;11.82;;;6.57;;
35667;SDS011;22158;59.280;17.806;2023-08-06T13:38:03;9.98;;;6.57;;
35667;SDS011;22158;59.280;17.806;2023-08-06T13:40:29;13.32;;;7.35;;
35667;SDS011;22158;59.280;17.806;2023-08-06T13:42:57;15.85;;;8.35;;
35667;SDS011;22158;59.280;17.806;2023-08-06T13:45:23;12.77;;;8.45;;
35667;SDS011;22158;59.280;17.806;2023-08-06T13:47:49;10.95;;;7.53;;
35667;SDS011;22158;59.280;17.806;2023-08-06T13:50:14;10.07;;;5.78;;
35667;SDS011;22158;59.280;17.806;2023-08-06T13:52:40;7.88;;;6.32;;
35667;SDS011;22158;59.280;17.806;2023-08-06T13:55:06;9.45;;;6.45;;
35667;SDS011;22158;59.280;17.806;2023-08-06T13:57:32;14.50;;;6.75;;
35667;SDS011;22158;59.280;17.806;2023-08-06T13:59:59;9.00;;;5.80;;
35667;SDS011;22158;59.280;17.806;2023-08-06T14:02:24;10.77;;;6.57;;
35667;SDS011;22158;59.280;17.806;2023-08-06T14:04:51;11.68;;;6.97;;
35667;SDS011;22158;59.280;17.806;2023-08-06T14:07:17;7.57;;;6.50;;
35667;SDS011;22158;59.280;17.806;2023-08-06T14:09:43;12.05;;;7.65;;
35667;SDS011;22158;59.280;17.806;2023-08-06T14:12:09;9.30;;;6.68;;
35667;SDS011;22158;59.280;17.806;2023-08-06T14:14:35;8.43;;;6.47;;
35667;SDS011;22158;59.280;17.806;2023-08-06T14:17:01;13.43;;;6.75;;
35667;SDS011;22158;59.280;17.806;2023-08-06T14:19:26;13.07;;;5.95;;
35667;SDS011;22158;59.280;17.806;2023-08-06T14:21:52;14.07;;;7.53;;
35667;SDS011;22158;59.280;17.806;2023-08-06T14:24:18;11.32;;;6.18;;
35667;SDS011;22158;59.280;17.806;2023-08-06T14:26:44;9.23;;;6.38;;
35667;SDS011;22158;59.280;17.806;2023-08-06T14:29:09;12.50;;;6.60;;
35667;SDS011;22158;59.280;17.806;2023-08-06T14:31:35;12.10;;;6.30;;
35667;SDS011;22158;59.280;17.806;2023-08-06T14:34:01;11.25;;;6.72;;
35667;SDS011;22158;59.280;17.806;2023-08-06T14:36:27;8.48;;;5.93;;
35667;SDS011;22158;59.280;17.806;2023-08-06T14:38:52;14.32;;;7.28;;